sensor_id;sensor_type;location;lat;lon;timestamp;temperature;humidity
79500;SHT31;76397;53.172;18.140;2024-03-02T00:00:05;8.18;82.74
79500;SHT31;76397;53.172;18.140;2024-03-02T00:03:00;8.18;82.90
79500;SHT31;76397;53.172;18.140;2024-03-02T00:05:27;8.16;82.92
79500;SHT31;76397;53.172;18.140;2024-03-02T00:07:55;8.15;83.00
79500;SHT31;76397;53.172;18.140;2024-03-02T00:10:31;8.10;83.09
79500;SHT31;76397;53.172;18.140;2024-03-02T00:13:08;8.07;83.22
79500;SHT31;76397;53.172;18.140;2024-03-02T00:15:48;8.08;83.17
79500;SHT31;76397;53.172;18.140;2024-03-02T00:18:21;8.10;83.16
79500;SHT31;76397;53.172;18.140;2024-03-02T00:20:57;8.08;83.29
79500;SHT31;76397;53.172;18.140;2024-03-02T00:23:29;8.06;83.20
79500;SHT31;76397;53.172;18.140;2024-03-02T00:25:57;8.01;83.50
79500;SHT31;76397;53.172;18.140;2024-03-02T00:28:30;7.96;83.66
79500;SHT31;76397;53.172;18.140;2024-03-02T00:31:04;7.93;83.86
79500;SHT31;76397;53.172;18.140;2024-03-02T00:33:38;7.93;83.82
79500;SHT31;76397;53.172;18.140;2024-03-02T00:36:08;7.97;83.71
79500;SHT31;76397;53.172;18.140;2024-03-02T00:38:55;8.01;83.64
79500;SHT31;76397;53.172;18.140;2024-03-02T00:44:03;8.09;83.46
79500;SHT31;76397;53.172;18.140;2024-03-02T00:46:33;8.08;83.41
79500;SHT31;76397;53.172;18.140;2024-03-02T00:51:51;7.96;83.78
79500;SHT31;76397;53.172;18.140;2024-03-02T00:54:23;7.96;83.79
79500;SHT31;76397;53.172;18.140;2024-03-02T00:56:53;7.97;83.88
79500;SHT31;76397;53.172;18.140;2024-03-02T00:59:22;7.99;83.84
79500;SHT31;76397;53.172;18.140;2024-03-02T01:01:49;7.99;83.86
79500;SHT31;76397;53.172;18.140;2024-03-02T01:04:17;7.99;83.90
79500;SHT31;76397;53.172;18.140;2024-03-02T01:06:43;7.95;83.89
79500;SHT31;76397;53.172;18.140;2024-03-02T01:09:10;7.92;83.99
79500;SHT31;76397;53.172;18.140;2024-03-02T01:11:38;7.87;84.00
79500;SHT31;76397;53.172;18.140;2024-03-02T01:14:06;7.84;84.25
79500;SHT31;76397;53.172;18.140;2024-03-02T01:16:32;7.86;84.28
79500;SHT31;76397;53.172;18.140;2024-03-02T01:18:59;7.91;84.14
79500;SHT31;76397;53.172;18.140;2024-03-02T01:21:26;7.91;84.10
79500;SHT31;76397;53.172;18.140;2024-03-02T01:23:53;7.93;84.12
79500;SHT31;76397;53.172;18.140;2024-03-02T01:26:19;7.91;84.09
79500;SHT31;76397;53.172;18.140;2024-03-02T01:28:46;7.87;84.07
79500;SHT31;76397;53.172;18.140;2024-03-02T01:31:13;7.82;84.16
79500;SHT31;76397;53.172;18.140;2024-03-02T01:33:40;7.81;84.24
79500;SHT31;76397;53.172;18.140;2024-03-02T01:36:07;7.81;84.29
79500;SHT31;76397;53.172;18.140;2024-03-02T01:38:34;7.84;84.28
79500;SHT31;76397;53.172;18.140;2024-03-02T01:41:01;7.89;84.21
79500;SHT31;76397;53.172;18.140;2024-03-02T01:43:28;7.92;84.03
79500;SHT31;76397;53.172;18.140;2024-03-02T01:45:55;7.86;84.00
79500;SHT31;76397;53.172;18.140;2024-03-02T01:48:23;7.80;84.15
79500;SHT31;76397;53.172;18.140;2024-03-02T01:50:50;7.80;84.21
79500;SHT31;76397;53.172;18.140;2024-03-02T01:53:17;7.82;84.16
79500;SHT31;76397;53.172;18.140;2024-03-02T01:55:44;7.82;84.12
79500;SHT31;76397;53.172;18.140;2024-03-02T01:58:10;7.85;84.12
79500;SHT31;76397;53.172;18.140;2024-03-02T02:00:38;7.87;84.02
79500;SHT31;76397;53.172;18.140;2024-03-02T02:03:04;7.89;83.95
79500;SHT31;76397;53.172;18.140;2024-03-02T02:05:33;7.82;84.09
79500;SHT31;76397;53.172;18.140;2024-03-02T02:08:01;7.80;84.13
79500;SHT31;76397;53.172;18.140;2024-03-02T02:10:28;7.80;84.10
79500;SHT31;76397;53.172;18.140;2024-03-02T02:12:55;7.80;84.17
79500;SHT31;76397;53.172;18.140;2024-03-02T02:15:28;7.82;84.11
79500;SHT31;76397;53.172;18.140;2024-03-02T02:17:57;7.82;84.11
79500;SHT31;76397;53.172;18.140;2024-03-02T02:20:25;7.85;84.11
79500;SHT31;76397;53.172;18.140;2024-03-02T02:25:36;7.74;84.08
79500;SHT31;76397;53.172;18.140;2024-03-02T02:28:02;7.67;84.13
79500;SHT31;76397;53.172;18.140;2024-03-02T02:30:30;7.63;84.10
79500;SHT31;76397;53.172;18.140;2024-03-02T02:32:58;7.60;84.10
79500;SHT31;76397;53.172;18.140;2024-03-02T02:35:26;7.53;84.22
79500;SHT31;76397;53.172;18.140;2024-03-02T02:37:53;7.49;84.43
79500;SHT31;76397;53.172;18.140;2024-03-02T02:40:22;7.49;84.46
79500;SHT31;76397;53.172;18.140;2024-03-02T02:42:49;7.47;84.46
79500;SHT31;76397;53.172;18.140;2024-03-02T02:45:18;7.45;84.50
79500;SHT31;76397;53.172;18.140;2024-03-02T02:47:45;7.46;84.59
79500;SHT31;76397;53.172;18.140;2024-03-02T02:50:12;7.50;84.50
79500;SHT31;76397;53.172;18.140;2024-03-02T02:52:40;7.53;84.58
79500;SHT31;76397;53.172;18.140;2024-03-02T02:55:09;7.55;84.50
79500;SHT31;76397;53.172;18.140;2024-03-02T02:57:39;7.59;84.42
79500;SHT31;76397;53.172;18.140;2024-03-02T03:00:09;7.55;84.30
79500;SHT31;76397;53.172;18.140;2024-03-02T03:02:43;7.52;84.26
79500;SHT31;76397;53.172;18.140;2024-03-02T03:05:13;7.44;84.24
79500;SHT31;76397;53.172;18.140;2024-03-02T03:07:41;7.35;84.29
79500;SHT31;76397;53.172;18.140;2024-03-02T03:10:10;7.25;84.45
79500;SHT31;76397;53.172;18.140;2024-03-02T03:12:37;7.16;84.67
79500;SHT31;76397;53.172;18.140;2024-03-02T03:15:05;7.08;84.69
79500;SHT31;76397;53.172;18.140;2024-03-02T03:17:33;7.08;84.81
79500;SHT31;76397;53.172;18.140;2024-03-02T03:20:01;7.03;84.82
79500;SHT31;76397;53.172;18.140;2024-03-02T03:22:30;6.99;84.98
79500;SHT31;76397;53.172;18.140;2024-03-02T03:25:01;6.98;85.00
79500;SHT31;76397;53.172;18.140;2024-03-02T03:27:29;6.99;85.00
79500;SHT31;76397;53.172;18.140;2024-03-02T03:29:56;7.02;85.10
79500;SHT31;76397;53.172;18.140;2024-03-02T03:32:23;7.06;85.20
79500;SHT31;76397;53.172;18.140;2024-03-02T03:34:50;7.09;85.20
79500;SHT31;76397;53.172;18.140;2024-03-02T03:37:17;7.11;85.06
79500;SHT31;76397;53.172;18.140;2024-03-02T03:39:44;7.12;85.04
79500;SHT31;76397;53.172;18.140;2024-03-02T03:42:10;7.13;85.07
79500;SHT31;76397;53.172;18.140;2024-03-02T03:44:37;7.12;85.10
79500;SHT31;76397;53.172;18.140;2024-03-02T03:47:06;7.13;85.07
79500;SHT31;76397;53.172;18.140;2024-03-02T03:49:33;7.14;85.10
79500;SHT31;76397;53.172;18.140;2024-03-02T03:51:59;7.18;84.94
79500;SHT31;76397;53.172;18.140;2024-03-02T03:54:26;7.23;84.84
79500;SHT31;76397;53.172;18.140;2024-03-02T03:56:53;7.25;84.80
79500;SHT31;76397;53.172;18.140;2024-03-02T03:59:20;7.26;84.78
79500;SHT31;76397;53.172;18.140;2024-03-02T04:01:47;7.27;84.71
79500;SHT31;76397;53.172;18.140;2024-03-02T04:04:13;7.27;84.70
79500;SHT31;76397;53.172;18.140;2024-03-02T04:06:41;7.24;84.68
79500;SHT31;76397;53.172;18.140;2024-03-02T04:09:07;7.23;84.70
79500;SHT31;76397;53.172;18.140;2024-03-02T04:11:34;7.24;84.60
79500;SHT31;76397;53.172;18.140;2024-03-02T04:14:01;7.28;84.57
79500;SHT31;76397;53.172;18.140;2024-03-02T04:16:28;7.28;84.48
79500;SHT31;76397;53.172;18.140;2024-03-02T04:18:55;7.29;84.53
79500;SHT31;76397;53.172;18.140;2024-03-02T04:21:22;7.32;84.47
79500;SHT31;76397;53.172;18.140;2024-03-02T04:23:48;7.31;84.40
79500;SHT31;76397;53.172;18.140;2024-03-02T04:26:15;7.32;84.38
79500;SHT31;76397;53.172;18.140;2024-03-02T04:28:46;7.34;84.31
79500;SHT31;76397;53.172;18.140;2024-03-02T04:31:13;7.36;84.26
79500;SHT31;76397;53.172;18.140;2024-03-02T04:33:42;7.38;84.14
79500;SHT31;76397;53.172;18.140;2024-03-02T04:36:09;7.38;84.23
79500;SHT31;76397;53.172;18.140;2024-03-02T04:38:37;7.42;84.16
79500;SHT31;76397;53.172;18.140;2024-03-02T04:41:05;7.41;84.11
79500;SHT31;76397;53.172;18.140;2024-03-02T04:43:33;7.39;84.18
79500;SHT31;76397;53.172;18.140;2024-03-02T04:46:00;7.38;84.19
79500;SHT31;76397;53.172;18.140;2024-03-02T04:48:27;7.37;84.21
79500;SHT31;76397;53.172;18.140;2024-03-02T04:50:54;7.34;84.30
79500;SHT31;76397;53.172;18.140;2024-03-02T04:53:21;7.34;84.31
79500;SHT31;76397;53.172;18.140;2024-03-02T04:55:48;7.37;84.26
79500;SHT31;76397;53.172;18.140;2024-03-02T04:58:20;7.39;84.20
79500;SHT31;76397;53.172;18.140;2024-03-02T05:00:47;7.40;84.18
79500;SHT31;76397;53.172;18.140;2024-03-02T05:03:14;7.36;84.16
79500;SHT31;76397;53.172;18.140;2024-03-02T05:05:41;7.34;84.27
79500;SHT31;76397;53.172;18.140;2024-03-02T05:08:07;7.32;84.31
79500;SHT31;76397;53.172;18.140;2024-03-02T05:10:34;7.31;84.40
79500;SHT31;76397;53.172;18.140;2024-03-02T05:13:03;7.36;84.37
79500;SHT31;76397;53.172;18.140;2024-03-02T05:15:29;7.41;84.23
79500;SHT31;76397;53.172;18.140;2024-03-02T05:17:56;7.43;84.10
79500;SHT31;76397;53.172;18.140;2024-03-02T05:20:24;7.42;84.08
79500;SHT31;76397;53.172;18.140;2024-03-02T05:22:51;7.41;84.05
79500;SHT31;76397;53.172;18.140;2024-03-02T05:25:17;7.38;84.05
79500;SHT31;76397;53.172;18.140;2024-03-02T05:27:45;7.37;84.10
79500;SHT31;76397;53.172;18.140;2024-03-02T05:30:12;7.40;84.10
79500;SHT31;76397;53.172;18.140;2024-03-02T05:32:40;7.44;84.03
79500;SHT31;76397;53.172;18.140;2024-03-02T05:35:07;7.49;83.97
79500;SHT31;76397;53.172;18.140;2024-03-02T05:37:35;7.53;83.83
79500;SHT31;76397;53.172;18.140;2024-03-02T05:40:02;7.54;83.73
79500;SHT31;76397;53.172;18.140;2024-03-02T05:42:29;7.50;83.72
79500;SHT31;76397;53.172;18.140;2024-03-02T05:44:56;7.45;83.82
79500;SHT31;76397;53.172;18.140;2024-03-02T05:47:22;7.37;83.99
79500;SHT31;76397;53.172;18.140;2024-03-02T05:49:49;7.39;84.02
79500;SHT31;76397;53.172;18.140;2024-03-02T05:52:16;7.40;84.05
79500;SHT31;76397;53.172;18.140;2024-03-02T05:54:43;7.45;83.97
79500;SHT31;76397;53.172;18.140;2024-03-02T05:57:10;7.47;83.91
79500;SHT31;76397;53.172;18.140;2024-03-02T05:59:48;7.51;83.84
79500;SHT31;76397;53.172;18.140;2024-03-02T06:02:15;7.53;83.76
79500;SHT31;76397;53.172;18.140;2024-03-02T06:04:42;7.55;83.70
79500;SHT31;76397;53.172;18.140;2024-03-02T06:07:09;7.58;83.67
79500;SHT31;76397;53.172;18.140;2024-03-02T06:09:35;7.56;83.60
79500;SHT31;76397;53.172;18.140;2024-03-02T06:12:02;7.56;83.61
79500;SHT31;76397;53.172;18.140;2024-03-02T06:14:30;7.54;83.59
79500;SHT31;76397;53.172;18.140;2024-03-02T06:16:57;7.55;83.65
79500;SHT31;76397;53.172;18.140;2024-03-02T06:19:25;7.59;83.58
79500;SHT31;76397;53.172;18.140;2024-03-02T06:21:53;7.63;83.50
79500;SHT31;76397;53.172;18.140;2024-03-02T06:24:20;7.63;83.45
79500;SHT31;76397;53.172;18.140;2024-03-02T06:26:47;7.64;83.44
79500;SHT31;76397;53.172;18.140;2024-03-02T06:29:13;7.63;83.40
79500;SHT31;76397;53.172;18.140;2024-03-02T06:31:40;7.63;83.40
79500;SHT31;76397;53.172;18.140;2024-03-02T06:41:33;7.76;83.19
79500;SHT31;76397;53.172;18.140;2024-03-02T06:44:00;7.76;83.25
79500;SHT31;76397;53.172;18.140;2024-03-02T06:46:27;7.77;83.19
79500;SHT31;76397;53.172;18.140;2024-03-02T06:48:53;7.79;83.20
79500;SHT31;76397;53.172;18.140;2024-03-02T06:51:20;7.84;83.10
79500;SHT31;76397;53.172;18.140;2024-03-02T06:53:47;7.88;83.00
79500;SHT31;76397;53.172;18.140;2024-03-02T06:56:14;7.96;82.92
79500;SHT31;76397;53.172;18.140;2024-03-02T06:58:41;8.03;82.88
79500;SHT31;76397;53.172;18.140;2024-03-02T07:01:09;8.06;82.69
79500;SHT31;76397;53.172;18.140;2024-03-02T07:03:36;8.05;82.67
79500;SHT31;76397;53.172;18.140;2024-03-02T07:06:05;8.01;82.74
79500;SHT31;76397;53.172;18.140;2024-03-02T07:08:33;8.04;82.85
79500;SHT31;76397;53.172;18.140;2024-03-02T07:11:00;8.10;82.68
79500;SHT31;76397;53.172;18.140;2024-03-02T07:13:27;8.18;82.54
79500;SHT31;76397;53.172;18.140;2024-03-02T07:15:53;8.28;82.42
79500;SHT31;76397;53.172;18.140;2024-03-02T07:18:30;8.40;82.20
79500;SHT31;76397;53.172;18.140;2024-03-02T07:20:57;8.43;81.97
79500;SHT31;76397;53.172;18.140;2024-03-02T07:23:25;8.44;81.92
79500;SHT31;76397;53.172;18.140;2024-03-02T07:25:57;8.44;81.89
79500;SHT31;76397;53.172;18.140;2024-03-02T07:28:26;8.53;81.85
79500;SHT31;76397;53.172;18.140;2024-03-02T07:30:59;8.68;81.76
79500;SHT31;76397;53.172;18.140;2024-03-02T07:33:28;8.83;81.46
79500;SHT31;76397;53.172;18.140;2024-03-02T07:35:54;8.92;81.25
79500;SHT31;76397;53.172;18.140;2024-03-02T07:38:22;9.01;81.02
79500;SHT31;76397;53.172;18.140;2024-03-02T07:40:49;9.09;80.72
79500;SHT31;76397;53.172;18.140;2024-03-02T07:43:17;9.19;80.61
79500;SHT31;76397;53.172;18.140;2024-03-02T07:45:46;9.38;80.25
79500;SHT31;76397;53.172;18.140;2024-03-02T07:48:14;9.62;79.95
79500;SHT31;76397;53.172;18.140;2024-03-02T07:50:41;9.84;79.41
79500;SHT31;76397;53.172;18.140;2024-03-02T07:53:09;10.13;78.85
79500;SHT31;76397;53.172;18.140;2024-03-02T07:55:36;10.52;78.48
79500;SHT31;76397;53.172;18.140;2024-03-02T07:58:03;11.01;78.01
79500;SHT31;76397;53.172;18.140;2024-03-02T08:00:30;11.75;76.28
79500;SHT31;76397;53.172;18.140;2024-03-02T08:02:57;12.38;74.71
79500;SHT31;76397;53.172;18.140;2024-03-02T08:05:25;12.65;74.26
79500;SHT31;76397;53.172;18.140;2024-03-02T08:07:53;13.04;74.13
79500;SHT31;76397;53.172;18.140;2024-03-02T08:10:20;13.61;72.39
79500;SHT31;76397;53.172;18.140;2024-03-02T08:12:47;14.02;71.73
79500;SHT31;76397;53.172;18.140;2024-03-02T08:15:14;14.34;70.60
79500;SHT31;76397;53.172;18.140;2024-03-02T08:17:41;14.29;69.37
79500;SHT31;76397;53.172;18.140;2024-03-02T08:20:14;14.40;70.00
79500;SHT31;76397;53.172;18.140;2024-03-02T08:22:42;14.27;68.79
79500;SHT31;76397;53.172;18.140;2024-03-02T08:25:10;13.94;69.12
79500;SHT31;76397;53.172;18.140;2024-03-02T08:27:37;13.73;68.84
79500;SHT31;76397;53.172;18.140;2024-03-02T08:30:07;13.59;68.81
79500;SHT31;76397;53.172;18.140;2024-03-02T08:32:36;13.45;68.95
79500;SHT31;76397;53.172;18.140;2024-03-02T08:35:04;13.65;69.68
79500;SHT31;76397;53.172;18.140;2024-03-02T08:37:31;14.35;68.88
79500;SHT31;76397;53.172;18.140;2024-03-02T08:39:58;14.92;67.52
79500;SHT31;76397;53.172;18.140;2024-03-02T08:42:25;15.18;67.79
79500;SHT31;76397;53.172;18.140;2024-03-02T08:44:52;15.35;66.72
79500;SHT31;76397;53.172;18.140;2024-03-02T08:47:19;15.98;66.76
79500;SHT31;76397;53.172;18.140;2024-03-02T08:49:46;16.78;66.20
79500;SHT31;76397;53.172;18.140;2024-03-02T08:52:13;17.27;64.29
79500;SHT31;76397;53.172;18.140;2024-03-02T08:54:40;17.15;63.60
79500;SHT31;76397;53.172;18.140;2024-03-02T08:57:07;16.23;63.39
79500;SHT31;76397;53.172;18.140;2024-03-02T08:59:33;15.15;64.67
79500;SHT31;76397;53.172;18.140;2024-03-02T09:02:00;14.18;65.93
79500;SHT31;76397;53.172;18.140;2024-03-02T09:04:27;13.66;66.72
79500;SHT31;76397;53.172;18.140;2024-03-02T09:06:55;13.52;67.80
79500;SHT31;76397;53.172;18.140;2024-03-02T09:09:22;13.82;66.68
79500;SHT31;76397;53.172;18.140;2024-03-02T09:11:49;14.62;66.28
79500;SHT31;76397;53.172;18.140;2024-03-02T09:14:16;15.47;63.94
79500;SHT31;76397;53.172;18.140;2024-03-02T09:16:43;15.88;63.70
79500;SHT31;76397;53.172;18.140;2024-03-02T09:19:10;15.87;62.98
79500;SHT31;76397;53.172;18.140;2024-03-02T09:21:37;15.33;63.55
79500;SHT31;76397;53.172;18.140;2024-03-02T09:24:04;14.71;64.65
79500;SHT31;76397;53.172;18.140;2024-03-02T09:26:33;14.52;65.13
79500;SHT31;76397;53.172;18.140;2024-03-02T09:28:59;14.31;65.53
79500;SHT31;76397;53.172;18.140;2024-03-02T09:31:26;13.94;66.15
79500;SHT31;76397;53.172;18.140;2024-03-02T09:33:53;13.61;66.54
79500;SHT31;76397;53.172;18.140;2024-03-02T09:36:20;13.55;66.78
79500;SHT31;76397;53.172;18.140;2024-03-02T09:38:48;13.97;66.72
79500;SHT31;76397;53.172;18.140;2024-03-02T09:41:15;14.26;65.80
79500;SHT31;76397;53.172;18.140;2024-03-02T09:43:42;14.43;65.24
79500;SHT31;76397;53.172;18.140;2024-03-02T09:46:10;14.69;65.43
79500;SHT31;76397;53.172;18.140;2024-03-02T09:48:37;14.78;65.61
79500;SHT31;76397;53.172;18.140;2024-03-02T09:51:05;14.87;65.36
79500;SHT31;76397;53.172;18.140;2024-03-02T09:53:32;15.31;64.67
79500;SHT31;76397;53.172;18.140;2024-03-02T09:56:00;15.62;63.40
79500;SHT31;76397;53.172;18.140;2024-03-02T09:58:27;15.37;63.06
79500;SHT31;76397;53.172;18.140;2024-03-02T10:00:55;15.24;63.01
79500;SHT31;76397;53.172;18.140;2024-03-02T10:03:22;15.15;63.49
79500;SHT31;76397;53.172;18.140;2024-03-02T10:05:54;15.09;63.55
79500;SHT31;76397;53.172;18.140;2024-03-02T10:08:20;15.28;62.80
79500;SHT31;76397;53.172;18.140;2024-03-02T10:10:47;15.74;62.31
79500;SHT31;76397;53.172;18.140;2024-03-02T10:13:14;15.76;61.72
79500;SHT31;76397;53.172;18.140;2024-03-02T10:15:41;15.82;61.98
79500;SHT31;76397;53.172;18.140;2024-03-02T10:18:09;15.98;61.50
79500;SHT31;76397;53.172;18.140;2024-03-02T10:20:40;15.95;61.70
79500;SHT31;76397;53.172;18.140;2024-03-02T10:23:14;16.03;62.11
79500;SHT31;76397;53.172;18.140;2024-03-02T10:25:43;16.43;61.26
79500;SHT31;76397;53.172;18.140;2024-03-02T10:28:11;16.63;60.98
79500;SHT31;76397;53.172;18.140;2024-03-02T10:30:38;16.79;60.48
79500;SHT31;76397;53.172;18.140;2024-03-02T10:33:05;16.87;59.90
79500;SHT31;76397;53.172;18.140;2024-03-02T10:35:33;17.05;59.31
79500;SHT31;76397;53.172;18.140;2024-03-02T10:38:03;17.16;59.33
79500;SHT31;76397;53.172;18.140;2024-03-02T10:40:32;17.23;60.12
79500;SHT31;76397;53.172;18.140;2024-03-02T10:43:00;17.34;59.52
79500;SHT31;76397;53.172;18.140;2024-03-02T10:45:30;17.38;59.71
79500;SHT31;76397;53.172;18.140;2024-03-02T10:47:57;17.31;59.24
79500;SHT31;76397;53.172;18.140;2024-03-02T10:50:24;17.15;59.46
79500;SHT31;76397;53.172;18.140;2024-03-02T10:52:51;16.92;59.54
79500;SHT31;76397;53.172;18.140;2024-03-02T10:55:18;16.63;59.59
79500;SHT31;76397;53.172;18.140;2024-03-02T10:57:49;16.40;59.66
79500;SHT31;76397;53.172;18.140;2024-03-02T11:00:20;16.20;60.08
